Youngs, New York
Current Conditions -  °F | °C
As of 6:53 AM on Saturday 25 Oct 2014 (Local Time) from KBGM Reporting Station
Overcast Overcast  
Wind Chill: 38°   Ceiling: 5500
Heat Index: 42°   Visibility: 10mi
Dew Point: 35°   Wind: 6mph
Humidity: 76%   Direction: 230°SW
Pressure: 29.87"   Gusts: NA
Location:  42.3228°N, 75.3326°W
Report Text: KBGM 251053Z 23005KT 10SM OVC055 06/02 A2987 RMK AO2 SLP119 T00560017
Loading
Personal Weather Stations






























Interactive Weather Map
Tropical Storm Tracking
New forecast layout! Learn more

10-Day Weather Forecast

Advertisements
Track Severe Weather on mobile